sensor_id;sensor_type;location;lat;lon;timestamp;P1;durP1;ratioP1;P2;durP2;ratioP2
60098;SDS011;45976;49.400;8.682;2022-07-18T00:00:48;5.03;;;0.93;;
60098;SDS011;45976;49.400;8.682;2022-07-18T00:01:48;3.03;;;1.00;;
60098;SDS011;45976;49.400;8.682;2022-07-18T00:02:49;6.67;;;1.43;;
60098;SDS011;45976;49.400;8.682;2022-07-18T00:03:50;3.53;;;1.20;;
60098;SDS011;45976;49.400;8.682;2022-07-18T00:04:50;5.37;;;1.57;;
60098;SDS011;45976;49.400;8.682;2022-07-18T00:05:52;4.15;;;1.23;;
60098;SDS011;45976;49.400;8.682;2022-07-18T00:06:53;5.00;;;1.58;;
60098;SDS011;45976;49.400;8.682;2022-07-18T00:07:54;9.82;;;1.70;;
60098;SDS011;45976;49.400;8.682;2022-07-18T00:08:55;3.40;;;1.53;;
60098;SDS011;45976;49.400;8.682;2022-07-18T00:09:55;6.77;;;1.10;;
60098;SDS011;45976;49.400;8.682;2022-07-18T00:10:56;4.53;;;1.40;;
60098;SDS011;45976;49.400;8.682;2022-07-18T00:11:56;3.77;;;1.57;;
60098;SDS011;45976;49.400;8.682;2022-07-18T00:12:57;2.90;;;1.30;;
60098;SDS011;45976;49.400;8.682;2022-07-18T00:13:57;8.60;;;1.30;;
60098;SDS011;45976;49.400;8.682;2022-07-18T00:14:58;3.67;;;1.33;;
60098;SDS011;45976;49.400;8.682;2022-07-18T00:15:59;3.97;;;1.48;;
60098;SDS011;45976;49.400;8.682;2022-07-18T00:17:00;2.87;;;1.13;;
60098;SDS011;45976;49.400;8.682;2022-07-18T00:18:01;4.00;;;1.00;;
60098;SDS011;45976;49.400;8.682;2022-07-18T00:19:03;2.40;;;1.15;;
60098;SDS011;45976;49.400;8.682;2022-07-18T00:20:05;3.28;;;0.88;;
60098;SDS011;45976;49.400;8.682;2022-07-18T00:21:09;4.63;;;1.30;;
60098;SDS011;45976;49.400;8.682;2022-07-18T00:22:09;6.50;;;1.40;;
60098;SDS011;45976;49.400;8.682;2022-07-18T00:23:10;3.15;;;1.30;;
60098;SDS011;45976;49.400;8.682;2022-07-18T00:24:11;2.83;;;1.40;;
60098;SDS011;45976;49.400;8.682;2022-07-18T00:25:11;2.97;;;1.23;;
60098;SDS011;45976;49.400;8.682;2022-07-18T00:26:12;3.77;;;1.23;;
60098;SDS011;45976;49.400;8.682;2022-07-18T00:27:12;4.72;;;1.50;;
60098;SDS011;45976;49.400;8.682;2022-07-18T00:28:13;2.23;;;1.07;;
60098;SDS011;45976;49.400;8.682;2022-07-18T00:29:14;3.10;;;1.07;;
60098;SDS011;45976;49.400;8.682;2022-07-18T00:30:14;5.10;;;1.60;;
60098;SDS011;45976;49.400;8.682;2022-07-18T00:31:15;7.25;;;1.33;;
60098;SDS011;45976;49.400;8.682;2022-07-18T00:32:16;4.45;;;1.27;;
60098;SDS011;45976;49.400;8.682;2022-07-18T00:33:17;6.05;;;1.70;;
60098;SDS011;45976;49.400;8.682;2022-07-18T00:34:17;2.10;;;1.00;;
60098;SDS011;45976;49.400;8.682;2022-07-18T00:35:18;3.25;;;1.20;;
60098;SDS011;45976;49.400;8.682;2022-07-18T00:36:19;2.05;;;1.10;;
60098;SDS011;45976;49.400;8.682;2022-07-18T00:37:19;3.57;;;1.23;;
60098;SDS011;45976;49.400;8.682;2022-07-18T00:38:20;6.93;;;1.30;;
60098;SDS011;45976;49.400;8.682;2022-07-18T00:39:21;3.67;;;0.95;;
60098;SDS011;45976;49.400;8.682;2022-07-18T00:40:21;2.47;;;0.90;;
60098;SDS011;45976;49.400;8.682;2022-07-18T00:41:22;3.50;;;1.00;;
60098;SDS011;45976;49.400;8.682;2022-07-18T00:42:23;7.63;;;1.20;;
60098;SDS011;45976;49.400;8.682;2022-07-18T00:43:24;3.72;;;1.40;;
60098;SDS011;45976;49.400;8.682;2022-07-18T00:44:25;7.07;;;2.28;;
60098;SDS011;45976;49.400;8.682;2022-07-18T00:45:30;4.75;;;1.25;;
60098;SDS011;45976;49.400;8.682;2022-07-18T00:46:30;2.95;;;1.02;;
60098;SDS011;45976;49.400;8.682;2022-07-18T00:47:31;2.10;;;1.30;;
60098;SDS011;45976;49.400;8.682;2022-07-18T00:48:32;3.13;;;1.20;;
60098;SDS011;45976;49.400;8.682;2022-07-18T00:49:33;3.50;;;1.40;;
60098;SDS011;45976;49.400;8.682;2022-07-18T00:50:34;2.78;;;1.20;;
60098;SDS011;45976;49.400;8.682;2022-07-18T00:51:34;7.63;;;1.08;;
60098;SDS011;45976;49.400;8.682;2022-07-18T00:52:38;4.00;;;1.08;;
60098;SDS011;45976;49.400;8.682;2022-07-18T00:53:39;1.35;;;0.90;;
60098;SDS011;45976;49.400;8.682;2022-07-18T00:54:40;3.33;;;1.23;;
60098;SDS011;45976;49.400;8.682;2022-07-18T00:55:42;2.97;;;1.15;;
60098;SDS011;45976;49.400;8.682;2022-07-18T00:56:46;2.50;;;1.25;;
60098;SDS011;45976;49.400;8.682;2022-07-18T00:57:49;3.38;;;1.30;;
60098;SDS011;45976;49.400;8.682;2022-07-18T00:58:49;4.10;;;1.33;;
60098;SDS011;45976;49.400;8.682;2022-07-18T00:59:50;2.57;;;0.93;;
60098;SDS011;45976;49.400;8.682;2022-07-18T01:01:11;3.13;;;0.88;;
60098;SDS011;45976;49.400;8.682;2022-07-18T01:02:31;5.93;;;1.30;;
60098;SDS011;45976;49.400;8.682;2022-07-18T01:03:31;2.88;;;1.00;;
60098;SDS011;45976;49.400;8.682;2022-07-18T01:04:32;5.63;;;1.02;;
60098;SDS011;45976;49.400;8.682;2022-07-18T01:05:33;3.80;;;0.70;;
60098;SDS011;45976;49.400;8.682;2022-07-18T01:06:33;2.10;;;1.00;;
60098;SDS011;45976;49.400;8.682;2022-07-18T01:07:37;3.03;;;1.00;;
60098;SDS011;45976;49.400;8.682;2022-07-18T01:08:38;2.58;;;1.17;;
60098;SDS011;45976;49.400;8.682;2022-07-18T01:09:42;7.35;;;1.02;;
60098;SDS011;45976;49.400;8.682;2022-07-18T01:10:43;4.03;;;1.40;;
60098;SDS011;45976;49.400;8.682;2022-07-18T01:11:45;1.92;;;1.00;;
60098;SDS011;45976;49.400;8.682;2022-07-18T01:12:47;6.05;;;1.02;;
60098;SDS011;45976;49.400;8.682;2022-07-18T01:13:48;9.07;;;1.30;;
60098;SDS011;45976;49.400;8.682;2022-07-18T01:14:50;3.00;;;1.20;;
60098;SDS011;45976;49.400;8.682;2022-07-18T01:15:51;3.60;;;1.30;;
60098;SDS011;45976;49.400;8.682;2022-07-18T01:16:51;5.03;;;1.20;;
60098;SDS011;45976;49.400;8.682;2022-07-18T01:17:52;3.10;;;1.13;;
60098;SDS011;45976;49.400;8.682;2022-07-18T01:18:53;7.83;;;1.27;;
60098;SDS011;45976;49.400;8.682;2022-07-18T01:19:53;1.47;;;0.90;;
60098;SDS011;45976;49.400;8.682;2022-07-18T01:20:54;3.30;;;1.30;;
60098;SDS011;45976;49.400;8.682;2022-07-18T01:21:55;3.83;;;1.20;;
60098;SDS011;45976;49.400;8.682;2022-07-18T01:22:56;5.93;;;2.50;;
60098;SDS011;45976;49.400;8.682;2022-07-18T01:23:58;3.75;;;1.17;;
60098;SDS011;45976;49.400;8.682;2022-07-18T01:24:59;2.22;;;0.95;;
60098;SDS011;45976;49.400;8.682;2022-07-18T01:25:59;4.57;;;1.38;;
60098;SDS011;45976;49.400;8.682;2022-07-18T01:27:00;4.47;;;1.20;;
60098;SDS011;45976;49.400;8.682;2022-07-18T01:28:01;4.68;;;1.27;;
60098;SDS011;45976;49.400;8.682;2022-07-18T01:29:02;3.00;;;1.35;;
60098;SDS011;45976;49.400;8.682;2022-07-18T01:30:03;3.85;;;1.30;;
60098;SDS011;45976;49.400;8.682;2022-07-18T01:31:05;5.32;;;1.30;;
60098;SDS011;45976;49.400;8.682;2022-07-18T01:32:07;2.95;;;1.40;;
60098;SDS011;45976;49.400;8.682;2022-07-18T01:33:09;6.63;;;1.40;;
60098;SDS011;45976;49.400;8.682;2022-07-18T01:34:09;2.47;;;1.07;;
60098;SDS011;45976;49.400;8.682;2022-07-18T01:35:10;5.33;;;1.07;;
60098;SDS011;45976;49.400;8.682;2022-07-18T01:36:11;4.00;;;1.13;;
60098;SDS011;45976;49.400;8.682;2022-07-18T01:37:12;4.25;;;1.20;;
60098;SDS011;45976;49.400;8.682;2022-07-18T01:38:15;6.40;;;1.27;;
60098;SDS011;45976;49.400;8.682;2022-07-18T01:39:17;3.00;;;1.08;;
60098;SDS011;45976;49.400;8.682;2022-07-18T01:40:18;4.50;;;1.30;;
60098;SDS011;45976;49.400;8.682;2022-07-18T01:41:19;3.58;;;1.38;;
60098;SDS011;45976;49.400;8.682;2022-07-18T01:42:19;2.37;;;1.27;;
60098;SDS011;45976;49.400;8.682;2022-07-18T01:43:20;3.03;;;1.47;;
60098;SDS011;45976;49.400;8.682;2022-07-18T01:44:20;2.50;;;0.93;;
60098;SDS011;45976;49.400;8.682;2022-07-18T01:45:21;3.25;;;1.30;;
60098;SDS011;45976;49.400;8.682;2022-07-18T01:46:22;5.75;;;1.20;;
60098;SDS011;45976;49.400;8.682;2022-07-18T01:47:23;3.73;;;1.20;;
60098;SDS011;45976;49.400;8.682;2022-07-18T01:48:23;2.13;;;1.20;;
60098;SDS011;45976;49.400;8.682;2022-07-18T01:49:24;3.03;;;1.35;;
60098;SDS011;45976;49.400;8.682;2022-07-18T01:50:26;4.18;;;1.48;;
60098;SDS011;45976;49.400;8.682;2022-07-18T01:51:27;3.08;;;0.95;;
60098;SDS011;45976;49.400;8.682;2022-07-18T01:52:28;2.35;;;1.10;;
60098;SDS011;45976;49.400;8.682;2022-07-18T01:53:29;2.70;;;1.30;;
60098;SDS011;45976;49.400;8.682;2022-07-18T01:54:30;2.43;;;1.30;;
60098;SDS011;45976;49.400;8.682;2022-07-18T01:55:33;4.50;;;1.30;;
60098;SDS011;45976;49.400;8.682;2022-07-18T01:56:34;3.50;;;1.20;;
60098;SDS011;45976;49.400;8.682;2022-07-18T01:57:35;6.70;;;1.50;;
60098;SDS011;45976;49.400;8.682;2022-07-18T01:58:37;2.35;;;0.93;;
60098;SDS011;45976;49.400;8.682;2022-07-18T01:59:37;7.03;;;1.55;;
60098;SDS011;45976;49.400;8.682;2022-07-18T02:00:38;2.08;;;1.05;;
60098;SDS011;45976;49.400;8.682;2022-07-18T02:01:39;3.00;;;1.10;;
60098;SDS011;45976;49.400;8.682;2022-07-18T02:02:40;2.17;;;0.93;;
60098;SDS011;45976;49.400;8.682;2022-07-18T02:03:41;5.75;;;0.90;;
60098;SDS011;45976;49.400;8.682;2022-07-18T02:04:41;2.77;;;1.23;;
60098;SDS011;45976;49.400;8.682;2022-07-18T02:06:00;2.78;;;0.90;;
60098;SDS011;45976;49.400;8.682;2022-07-18T02:07:01;2.40;;;0.80;;
60098;SDS011;45976;49.400;8.682;2022-07-18T02:08:01;3.13;;;1.03;;
60098;SDS011;45976;49.400;8.682;2022-07-18T02:09:03;1.60;;;0.75;;
60098;SDS011;45976;49.400;8.682;2022-07-18T02:11:15;2.63;;;1.10;;
60098;SDS011;45976;49.400;8.682;2022-07-18T02:12:15;3.13;;;0.93;;
60098;SDS011;45976;49.400;8.682;2022-07-18T02:13:16;1.92;;;0.80;;
60098;SDS011;45976;49.400;8.682;2022-07-18T02:14:20;2.78;;;0.70;;
60098;SDS011;45976;49.400;8.682;2022-07-18T02:15:20;4.00;;;1.27;;
60098;SDS011;45976;49.400;8.682;2022-07-18T02:16:21;4.57;;;1.02;;
60098;SDS011;45976;49.400;8.682;2022-07-18T02:17:22;1.37;;;0.67;;
60098;SDS011;45976;49.400;8.682;2022-07-18T02:18:22;2.93;;;1.10;;
60098;SDS011;45976;49.400;8.682;2022-07-18T02:19:23;2.57;;;1.00;;
60098;SDS011;45976;49.400;8.682;2022-07-18T02:20:24;2.37;;;0.80;;
60098;SDS011;45976;49.400;8.682;2022-07-18T02:21:24;2.58;;;0.98;;
60098;SDS011;45976;49.400;8.682;2022-07-18T02:22:25;11.37;;;1.20;;
60098;SDS011;45976;49.400;8.682;2022-07-18T02:23:26;3.80;;;1.50;;
60098;SDS011;45976;49.400;8.682;2022-07-18T02:24:28;4.63;;;1.15;;
60098;SDS011;45976;49.400;8.682;2022-07-18T02:25:28;2.38;;;0.95;;
60098;SDS011;45976;49.400;8.682;2022-07-18T02:26:29;2.43;;;1.20;;
60098;SDS011;45976;49.400;8.682;2022-07-18T02:27:30;2.83;;;1.00;;
60098;SDS011;45976;49.400;8.682;2022-07-18T02:28:31;1.98;;;0.98;;
60098;SDS011;45976;49.400;8.682;2022-07-18T02:29:32;5.13;;;1.10;;
60098;SDS011;45976;49.400;8.682;2022-07-18T02:30:33;4.00;;;1.23;;
60098;SDS011;45976;49.400;8.682;2022-07-18T02:31:33;3.07;;;1.20;;
60098;SDS011;45976;49.400;8.682;2022-07-18T02:32:34;4.07;;;1.07;;
60098;SDS011;45976;49.400;8.682;2022-07-18T02:33:37;4.00;;;0.85;;
60098;SDS011;45976;49.400;8.682;2022-07-18T02:34:37;3.40;;;1.10;;
60098;SDS011;45976;49.400;8.682;2022-07-18T02:35:38;2.90;;;0.90;;
60098;SDS011;45976;49.400;8.682;2022-07-18T02:36:39;1.30;;;0.90;;
60098;SDS011;45976;49.400;8.682;2022-07-18T02:37:42;2.28;;;1.20;;
60098;SDS011;45976;49.400;8.682;2022-07-18T02:38:43;1.42;;;0.93;;
60098;SDS011;45976;49.400;8.682;2022-07-18T02:39:43;2.73;;;1.33;;
60098;SDS011;45976;49.400;8.682;2022-07-18T02:40:44;5.05;;;1.15;;
60098;SDS011;45976;49.400;8.682;2022-07-18T02:41:45;2.37;;;1.20;;
60098;SDS011;45976;49.400;8.682;2022-07-18T02:42:46;4.90;;;0.98;;
60098;SDS011;45976;49.400;8.682;2022-07-18T02:43:47;1.25;;;0.85;;
60098;SDS011;45976;49.400;8.682;2022-07-18T02:44:47;6.17;;;1.20;;
60098;SDS011;45976;49.400;8.682;2022-07-18T02:45:48;2.20;;;0.70;;
60098;SDS011;45976;49.400;8.682;2022-07-18T02:46:49;1.80;;;1.00;;
60098;SDS011;45976;49.400;8.682;2022-07-18T02:47:50;4.95;;;0.82;;
60098;SDS011;45976;49.400;8.682;2022-07-18T02:48:51;5.70;;;1.40;;
60098;SDS011;45976;49.400;8.682;2022-07-18T02:49:51;5.03;;;1.00;;
60098;SDS011;45976;49.400;8.682;2022-07-18T02:50:52;3.50;;;1.00;;
60098;SDS011;45976;49.400;8.682;2022-07-18T02:51:53;2.50;;;0.80;;
60098;SDS011;45976;49.400;8.682;2022-07-18T02:53:00;1.15;;;0.80;;
60098;SDS011;45976;49.400;8.682;2022-07-18T02:54:01;1.83;;;0.82;;
60098;SDS011;45976;49.400;8.682;2022-07-18T02:55:02;1.33;;;0.80;;
60098;SDS011;45976;49.400;8.682;2022-07-18T02:56:03;2.75;;;1.10;;
60098;SDS011;45976;49.400;8.682;2022-07-18T02:57:05;3.00;;;0.70;;
60098;SDS011;45976;49.400;8.682;2022-07-18T02:58:06;3.50;;;1.00;;
60098;SDS011;45976;49.400;8.682;2022-07-18T02:59:07;1.57;;;0.77;;
60098;SDS011;45976;49.400;8.682;2022-07-18T03:00:12;1.75;;;1.00;;
60098;SDS011;45976;49.400;8.682;2022-07-18T03:01:15;2.30;;;1.05;;
60098;SDS011;45976;49.400;8.682;2022-07-18T03:02:15;3.93;;;1.10;;
60098;SDS011;45976;49.400;8.682;2022-07-18T03:03:16;2.63;;;0.90;;
60098;SDS011;45976;49.400;8.682;2022-07-18T03:04:16;1.57;;;0.70;;
60098;SDS011;45976;49.400;8.682;2022-07-18T03:05:19;0.95;;;0.73;;
60098;SDS011;45976;49.400;8.682;2022-07-18T03:06:20;1.92;;;1.15;;
60098;SDS011;45976;49.400;8.682;2022-07-18T03:07:21;3.27;;;1.03;;
60098;SDS011;45976;49.400;8.682;2022-07-18T03:08:21;2.13;;;0.87;;
60098;SDS011;45976;49.400;8.682;2022-07-18T03:09:22;4.53;;;1.10;;
60098;SDS011;45976;49.400;8.682;2022-07-18T03:10:26;5.65;;;1.05;;
60098;SDS011;45976;49.400;8.682;2022-07-18T03:11:28;3.25;;;0.90;;
60098;SDS011;45976;49.400;8.682;2022-07-18T03:12:28;3.60;;;1.00;;
60098;SDS011;45976;49.400;8.682;2022-07-18T03:13:29;1.87;;;0.90;;
60098;SDS011;45976;49.400;8.682;2022-07-18T03:14:29;2.55;;;1.13;;
60098;SDS011;45976;49.400;8.682;2022-07-18T03:15:30;3.17;;;0.90;;
60098;SDS011;45976;49.400;8.682;2022-07-18T03:16:31;4.05;;;1.02;;
60098;SDS011;45976;49.400;8.682;2022-07-18T03:17:32;4.05;;;1.00;;
60098;SDS011;45976;49.400;8.682;2022-07-18T03:18:32;2.67;;;1.20;;
60098;SDS011;45976;49.400;8.682;2022-07-18T03:19:33;3.87;;;0.80;;
60098;SDS011;45976;49.400;8.682;2022-07-18T03:20:34;1.27;;;0.90;;
60098;SDS011;45976;49.400;8.682;2022-07-18T03:21:34;4.47;;;1.00;;
60098;SDS011;45976;49.400;8.682;2022-07-18T03:22:35;6.70;;;1.33;;
60098;SDS011;45976;49.400;8.682;2022-07-18T03:23:35;2.73;;;1.07;;
60098;SDS011;45976;49.400;8.682;2022-07-18T03:24:36;3.03;;;1.17;;
60098;SDS011;45976;49.400;8.682;2022-07-18T03:25:37;5.20;;;1.03;;
60098;SDS011;45976;49.400;8.682;2022-07-18T03:26:37;3.17;;;1.33;;
60098;SDS011;45976;49.400;8.682;2022-07-18T03:27:38;4.50;;;1.30;;
60098;SDS011;45976;49.400;8.682;2022-07-18T03:28:39;3.60;;;1.10;;
60098;SDS011;45976;49.400;8.682;2022-07-18T03:29:39;3.03;;;1.15;;
60098;SDS011;45976;49.400;8.682;2022-07-18T03:30:40;7.23;;;1.50;;
60098;SDS011;45976;49.400;8.682;2022-07-18T03:31:42;1.73;;;1.02;;
60098;SDS011;45976;49.400;8.682;2022-07-18T03:32:42;1.93;;;1.03;;
60098;SDS011;45976;49.400;8.682;2022-07-18T03:33:43;2.37;;;1.03;;
60098;SDS011;45976;49.400;8.682;2022-07-18T03:34:44;2.60;;;1.00;;
60098;SDS011;45976;49.400;8.682;2022-07-18T03:35:45;2.90;;;1.17;;
60098;SDS011;45976;49.400;8.682;2022-07-18T03:36:46;4.97;;;1.13;;
60098;SDS011;45976;49.400;8.682;2022-07-18T03:37:46;4.07;;;1.30;;
60098;SDS011;45976;49.400;8.682;2022-07-18T03:38:47;2.50;;;1.20;;
60098;SDS011;45976;49.400;8.682;2022-07-18T03:39:48;3.53;;;1.05;;
60098;SDS011;45976;49.400;8.682;2022-07-18T03:40:48;4.47;;;0.97;;
60098;SDS011;45976;49.400;8.682;2022-07-18T03:41:49;2.90;;;1.20;;
60098;SDS011;45976;49.400;8.682;2022-07-18T03:42:51;2.55;;;1.17;;
60098;SDS011;45976;49.400;8.682;2022-07-18T03:43:52;6.47;;;1.40;;
60098;SDS011;45976;49.400;8.682;2022-07-18T03:44:52;4.97;;;1.30;;
60098;SDS011;45976;49.400;8.682;2022-07-18T03:45:53;2.23;;;1.07;;
60098;SDS011;45976;49.400;8.682;2022-07-18T03:46:54;3.07;;;1.50;;
60098;SDS011;45976;49.400;8.682;2022-07-18T03:47:54;1.70;;;1.10;;
60098;SDS011;45976;49.400;8.682;2022-07-18T03:48:55;5.40;;;1.40;;
60098;SDS011;45976;49.400;8.682;2022-07-18T03:49:56;3.50;;;1.10;;
60098;SDS011;45976;49.400;8.682;2022-07-18T03:50:57;4.03;;;1.40;;
60098;SDS011;45976;49.400;8.682;2022-07-18T03:51:59;2.58;;;1.38;;
60098;SDS011;45976;49.400;8.682;2022-07-18T03:53:00;3.67;;;1.80;;
60098;SDS011;45976;49.400;8.682;2022-07-18T03:54:01;3.15;;;1.40;;
60098;SDS011;45976;49.400;8.682;2022-07-18T03:55:02;3.00;;;1.20;;
60098;SDS011;45976;49.400;8.682;2022-07-18T03:56:03;4.80;;;1.55;;
60098;SDS011;45976;49.400;8.682;2022-07-18T03:57:04;2.03;;;1.52;;
60098;SDS011;45976;49.400;8.682;2022-07-18T03:58:05;5.63;;;1.27;;
60098;SDS011;45976;49.400;8.682;2022-07-18T03:59:05;3.97;;;1.63;;
60098;SDS011;45976;49.400;8.682;2022-07-18T04:00:06;2.60;;;1.23;;
60098;SDS011;45976;49.400;8.682;2022-07-18T04:01:10;2.83;;;1.23;;
60098;SDS011;45976;49.400;8.682;2022-07-18T04:02:11;3.38;;;1.40;;
60098;SDS011;45976;49.400;8.682;2022-07-18T04:03:12;5.63;;;1.57;;
60098;SDS011;45976;49.400;8.682;2022-07-18T04:04:13;8.27;;;1.70;;
60098;SDS011;45976;49.400;8.682;2022-07-18T04:05:14;2.53;;;1.27;;
60098;SDS011;45976;49.400;8.682;2022-07-18T04:06:16;4.30;;;1.30;;
60098;SDS011;45976;49.400;8.682;2022-07-18T04:07:17;3.77;;;1.27;;
60098;SDS011;45976;49.400;8.682;2022-07-18T04:08:17;2.60;;;1.53;;
60098;SDS011;45976;49.400;8.682;2022-07-18T04:09:18;5.05;;;2.03;;
60098;SDS011;45976;49.400;8.682;2022-07-18T04:10:19;10.27;;;1.60;;
60098;SDS011;45976;49.400;8.682;2022-07-18T04:11:20;4.72;;;1.23;;
60098;SDS011;45976;49.400;8.682;2022-07-18T04:12:23;4.30;;;1.70;;
60098;SDS011;45976;49.400;8.682;2022-07-18T04:13:24;2.57;;;1.53;;
60098;SDS011;45976;49.400;8.682;2022-07-18T04:14:25;6.17;;;1.80;;
60098;SDS011;45976;49.400;8.682;2022-07-18T04:15:25;4.43;;;1.50;;
60098;SDS011;45976;49.400;8.682;2022-07-18T04:16:26;4.20;;;1.60;;
60098;SDS011;45976;49.400;8.682;2022-07-18T04:17:27;6.80;;;1.80;;
60098;SDS011;45976;49.400;8.682;2022-07-18T04:18:27;5.27;;;1.90;;
60098;SDS011;45976;49.400;8.682;2022-07-18T04:19:28;4.78;;;1.83;;
60098;SDS011;45976;49.400;8.682;2022-07-18T04:20:29;6.43;;;1.80;;
60098;SDS011;45976;49.400;8.682;2022-07-18T04:21:30;7.00;;;2.10;;
60098;SDS011;45976;49.400;8.682;2022-07-18T04:22:31;7.63;;;1.40;;
60098;SDS011;45976;49.400;8.682;2022-07-18T04:23:31;3.20;;;1.43;;
60098;SDS011;45976;49.400;8.682;2022-07-18T04:24:32;4.87;;;1.60;;
60098;SDS011;45976;49.400;8.682;2022-07-18T04:25:34;5.90;;;2.07;;
60098;SDS011;45976;49.400;8.682;2022-07-18T04:26:37;9.20;;;2.08;;
60098;SDS011;45976;49.400;8.682;2022-07-18T04:27:38;9.07;;;2.00;;
60098;SDS011;45976;49.400;8.682;2022-07-18T04:28:38;9.93;;;2.23;;
60098;SDS011;45976;49.400;8.682;2022-07-18T04:29:39;5.47;;;1.63;;
60098;SDS011;45976;49.400;8.682;2022-07-18T04:30:40;13.97;;;1.70;;
60098;SDS011;45976;49.400;8.682;2022-07-18T04:31:42;4.97;;;1.40;;
60098;SDS011;45976;49.400;8.682;2022-07-18T04:32:43;8.53;;;1.80;;
60098;SDS011;45976;49.400;8.682;2022-07-18T04:33:44;6.63;;;1.77;;
60098;SDS011;45976;49.400;8.682;2022-07-18T04:34:45;8.95;;;2.03;;
60098;SDS011;45976;49.400;8.682;2022-07-18T04:35:45;5.53;;;1.50;;
60098;SDS011;45976;49.400;8.682;2022-07-18T04:36:48;5.93;;;1.65;;
60098;SDS011;45976;49.400;8.682;2022-07-18T04:37:49;3.37;;;1.43;;
60098;SDS011;45976;49.400;8.682;2022-07-18T04:38:51;3.85;;;1.70;;
60098;SDS011;45976;49.400;8.682;2022-07-18T04:39:52;3.60;;;1.53;;
60098;SDS011;45976;49.400;8.682;2022-07-18T04:40:52;3.30;;;1.30;;
60098;SDS011;45976;49.400;8.682;2022-07-18T04:41:53;6.70;;;1.63;;
60098;SDS011;45976;49.400;8.682;2022-07-18T04:42:55;3.67;;;1.15;;
60098;SDS011;45976;49.400;8.682;2022-07-18T04:43:55;4.10;;;1.70;;
60098;SDS011;45976;49.400;8.682;2022-07-18T04:44:56;10.53;;;2.67;;
60098;SDS011;45976;49.400;8.682;2022-07-18T04:45:58;3.20;;;1.60;;
60098;SDS011;45976;49.400;8.682;2022-07-18T04:46:59;3.20;;;1.50;;
60098;SDS011;45976;49.400;8.682;2022-07-18T04:47:59;4.10;;;1.53;;
60098;SDS011;45976;49.400;8.682;2022-07-18T04:49:01;2.60;;;1.30;;
60098;SDS011;45976;49.400;8.682;2022-07-18T04:51:04;16.02;;;2.67;;
60098;SDS011;45976;49.400;8.682;2022-07-18T04:52:05;6.75;;;1.95;;
60098;SDS011;45976;49.400;8.682;2022-07-18T04:53:06;4.00;;;1.60;;
60098;SDS011;45976;49.400;8.682;2022-07-18T04:54:06;3.67;;;1.57;;
60098;SDS011;45976;49.400;8.682;2022-07-18T04:56:10;4.13;;;1.67;;
60098;SDS011;45976;49.400;8.682;2022-07-18T04:57:10;11.97;;;2.20;;
60098;SDS011;45976;49.400;8.682;2022-07-18T04:58:14;9.13;;;2.10;;
60098;SDS011;45976;49.400;8.682;2022-07-18T04:59:15;7.23;;;1.90;;
60098;SDS011;45976;49.400;8.682;2022-07-18T05:00:16;9.33;;;1.90;;
60098;SDS011;45976;49.400;8.682;2022-07-18T05:01:21;4.15;;;1.80;;
60098;SDS011;45976;49.400;8.682;2022-07-18T05:02:22;5.27;;;1.97;;
60098;SDS011;45976;49.400;8.682;2022-07-18T05:03:22;2.73;;;1.83;;
60098;SDS011;45976;49.400;8.682;2022-07-18T05:04:23;10.38;;;2.38;;
60098;SDS011;45976;49.400;8.682;2022-07-18T05:05:25;9.90;;;2.07;;
60098;SDS011;45976;49.400;8.682;2022-07-18T05:06:27;4.00;;;1.70;;
60098;SDS011;45976;49.400;8.682;2022-07-18T05:07:28;3.23;;;2.07;;
60098;SDS011;45976;49.400;8.682;2022-07-18T05:08:29;6.07;;;1.60;;
60098;SDS011;45976;49.400;8.682;2022-07-18T05:09:29;3.30;;;1.87;;
60098;SDS011;45976;49.400;8.682;2022-07-18T05:10:30;6.47;;;1.70;;
60098;SDS011;45976;49.400;8.682;2022-07-18T05:11:31;5.55;;;1.60;;
60098;SDS011;45976;49.400;8.682;2022-07-18T05:12:31;8.27;;;2.00;;
60098;SDS011;45976;49.400;8.682;2022-07-18T05:13:32;9.38;;;1.65;;
60098;SDS011;45976;49.400;8.682;2022-07-18T05:14:33;9.17;;;1.93;;
60098;SDS011;45976;49.400;8.682;2022-07-18T05:15:35;7.35;;;1.85;;
60098;SDS011;45976;49.400;8.682;2022-07-18T05:16:35;10.40;;;2.10;;
60098;SDS011;45976;49.400;8.682;2022-07-18T05:17:36;9.90;;;1.85;;
60098;SDS011;45976;49.400;8.682;2022-07-18T05:18:39;5.55;;;1.73;;
60098;SDS011;45976;49.400;8.682;2022-07-18T05:19:39;8.77;;;2.00;;
60098;SDS011;45976;49.400;8.682;2022-07-18T05:20:40;2.57;;;1.53;;
60098;SDS011;45976;49.400;8.682;2022-07-18T05:21:42;8.02;;;1.80;;
60098;SDS011;45976;49.400;8.682;2022-07-18T05:22:44;8.50;;;1.67;;
60098;SDS011;45976;49.400;8.682;2022-07-18T05:23:45;6.82;;;2.10;;
60098;SDS011;45976;49.400;8.682;2022-07-18T05:24:46;4.23;;;1.47;;
60098;SDS011;45976;49.400;8.682;2022-07-18T05:25:46;6.07;;;1.77;;
60098;SDS011;45976;49.400;8.682;2022-07-18T05:26:47;7.80;;;2.37;;
60098;SDS011;45976;49.400;8.682;2022-07-18T05:27:48;6.95;;;1.92;;
60098;SDS011;45976;49.400;8.682;2022-07-18T05:28:50;3.88;;;1.92;;
60098;SDS011;45976;49.400;8.682;2022-07-18T05:29:51;4.97;;;1.73;;
60098;SDS011;45976;49.400;8.682;2022-07-18T05:30:51;9.10;;;1.63;;
60098;SDS011;45976;49.400;8.682;2022-07-18T05:31:54;2.78;;;1.60;;
60098;SDS011;45976;49.400;8.682;2022-07-18T05:32:55;5.32;;;1.75;;
60098;SDS011;45976;49.400;8.682;2022-07-18T05:33:55;4.77;;;2.00;;
60098;SDS011;45976;49.400;8.682;2022-07-18T05:34:56;9.25;;;1.55;;
60098;SDS011;45976;49.400;8.682;2022-07-18T05:35:57;3.73;;;1.50;;
60098;SDS011;45976;49.400;8.682;2022-07-18T05:36:58;3.43;;;1.97;;
60098;SDS011;45976;49.400;8.682;2022-07-18T05:37:58;5.63;;;1.88;;
60098;SDS011;45976;49.400;8.682;2022-07-18T05:38:59;4.93;;;1.50;;
60098;SDS011;45976;49.400;8.682;2022-07-18T05:41:06;9.77;;;1.80;;
60098;SDS011;45976;49.400;8.682;2022-07-18T05:42:07;7.07;;;1.57;;
60098;SDS011;45976;49.400;8.682;2022-07-18T05:43:08;7.43;;;1.90;;
60098;SDS011;45976;49.400;8.682;2022-07-18T05:44:08;13.10;;;2.00;;
60098;SDS011;45976;49.400;8.682;2022-07-18T05:45:09;3.03;;;1.50;;
60098;SDS011;45976;49.400;8.682;2022-07-18T05:46:10;6.72;;;1.70;;
60098;SDS011;45976;49.400;8.682;2022-07-18T05:47:11;9.73;;;2.10;;
60098;SDS011;45976;49.400;8.682;2022-07-18T05:48:13;8.57;;;1.45;;
60098;SDS011;45976;49.400;8.682;2022-07-18T05:49:14;7.82;;;1.70;;
60098;SDS011;45976;49.400;8.682;2022-07-18T05:51:16;4.63;;;1.35;;
60098;SDS011;45976;49.400;8.682;2022-07-18T05:52:19;7.00;;;1.80;;
60098;SDS011;45976;49.400;8.682;2022-07-18T05:53:19;11.03;;;1.57;;
60098;SDS011;45976;49.400;8.682;2022-07-18T05:54:20;7.90;;;1.43;;
60098;SDS011;45976;49.400;8.682;2022-07-18T05:55:20;3.38;;;1.00;;
60098;SDS011;45976;49.400;8.682;2022-07-18T05:56:21;12.27;;;1.20;;
60098;SDS011;45976;49.400;8.682;2022-07-18T05:57:22;7.40;;;1.20;;
60098;SDS011;45976;49.400;8.682;2022-07-18T05:58:23;10.13;;;1.50;;
60098;SDS011;45976;49.400;8.682;2022-07-18T05:59:23;16.50;;;1.38;;
60098;SDS011;45976;49.400;8.682;2022-07-18T06:00:24;6.15;;;1.42;;
60098;SDS011;45976;49.400;8.682;2022-07-18T06:01:25;4.78;;;1.50;;
60098;SDS011;45976;49.400;8.682;2022-07-18T06:02:26;2.20;;;0.90;;
60098;SDS011;45976;49.400;8.682;2022-07-18T06:03:28;6.83;;;1.00;;
60098;SDS011;45976;49.400;8.682;2022-07-18T06:04:28;7.03;;;1.10;;
60098;SDS011;45976;49.400;8.682;2022-07-18T06:05:29;3.77;;;0.70;;
60098;SDS011;45976;49.400;8.682;2022-07-18T06:06:30;3.03;;;1.03;;
60098;SDS011;45976;49.400;8.682;2022-07-18T06:07:31;4.82;;;1.02;;
60098;SDS011;45976;49.400;8.682;2022-07-18T06:08:32;1.20;;;0.70;;
60098;SDS011;45976;49.400;8.682;2022-07-18T06:09:33;9.17;;;1.27;;
60098;SDS011;45976;49.400;8.682;2022-07-18T06:10:34;3.03;;;1.02;;
60098;SDS011;45976;49.400;8.682;2022-07-18T06:11:34;6.82;;;1.50;;
60098;SDS011;45976;49.400;8.682;2022-07-18T06:12:35;4.63;;;1.10;;
60098;SDS011;45976;49.400;8.682;2022-07-18T06:13:37;3.53;;;1.10;;
60098;SDS011;45976;49.400;8.682;2022-07-18T06:14:40;2.15;;;0.85;;